Portada
METAR-TAF:

METAR-TAF

Aeroports :

Payerne, Suïssa

latitud: 46-49N, longitud: 006-57E, altitud: 490 m

Observació

L'informe es va fer fa 31 minuts, a les 22:20 UTC
Vent 3 kt del Sud/Sud-Oest
Temperatura 16°C
Humitat 94%
Pressió 1020 hPa
Visibilitat: 8000 m

METAR: LSMP 242220Z AUTO 21003KT 8000NDV NCD 16/15 Q1020 RMK

Hora: 00:51 (22:51 UTC)


TAF: manca

Observacions i pronòstics meteorològics de més de 4000 aeroports (METAR i TAF).

Les estacions disponibles són els punts grocs i vermells al mapa.

Posi el ratolí al punt desitjat per veure el nom de l'estació.

Feu clic per veure les observacions i els pronòstics meteorològics.

Per canviar el mapa: feu clic els botons verds amb una creu de color negre per apropar; al botó verd amb un guió per allunyar la imatge; o en les fletxes verdes per a mapes adjacents.


METAR-TAF: